Time;durP1;ratioP1;P1;durP2;ratioP2;P2;SDS_P1;SDS_P2;PMS_P1;PMS_P2;Temp;Humidity;BMP_temperature;BMP_pressure;BME280_temperature;BME280_humidity;BME280_pressure;Samples;Min_cycle;Max_cycle;Signal;HPM_P1;HPM_P2
2022/11/18 00:01:06;;;;;;;25.52;13.93;;;;;;;15.47;46.11;102036.44;5011537;28;20034;-50
2022/11/18 00:03:32;;;;;;;23.88;14.07;;;;;;;15.37;46.42;102039.53;4994723;28;20509;-50
2022/11/18 00:05:59;;;;;;;24.00;12.52;;;;;;;15.48;46.28;102047.00;5010952;28;20045;-47
2022/11/18 00:08:25;;;;;;;24.55;13.25;;;;;;;15.46;46.58;102049.09;5012367;28;20013;-50
2022/11/18 00:10:52;;;;;;;23.75;13.15;;;;;;;15.32;46.97;102047.44;5011925;28;20437;-48
2022/11/18 00:16:09;;;;;;;25.30;13.27;;;;;;;15.24;47.55;102042.25;5012114;28;20025;-47
2022/11/18 00:18:36;;;;;;;22.92;13.27;;;;;;;15.12;47.18;102044.75;5012314;28;20064;-48
2022/11/18 00:21:10;;;;;;;21.80;13.80;;;;;;;15.12;47.39;102038.53;5012266;28;20026;-47
2022/11/18 00:23:37;;;;;;;26.20;13.50;;;;;;;14.98;47.27;102035.81;5012346;28;20034;-51
2022/11/18 00:26:10;;;;;;;25.33;13.48;;;;;;;15.01;47.66;102038.09;5010787;28;20488;-50
2022/11/18 00:28:36;;;;;;;21.75;13.50;;;;;;;15.15;47.21;102038.09;5011592;28;20386;-50
2022/11/18 00:31:11;;;;;;;25.23;13.95;;;;;;;15.19;46.88;102040.19;5011779;28;20018;-49
2022/11/18 00:33:38;;;;;;;30.83;13.93;;;;;;;15.11;47.05;102035.00;5012017;28;20025;-51
2022/11/18 00:36:08;;;;;;;29.65;14.75;;;;;;;14.89;46.92;102037.06;5011829;28;20034;-48
2022/11/18 00:38:34;;;;;;;23.95;13.43;;;;;;;14.99;46.90;102040.19;5026588;28;20124;-49
2022/11/18 00:41:05;;;;;;;25.40;12.98;;;;;;;14.89;46.68;102036.22;5010457;28;20038;-49
2022/11/18 00:43:33;;;;;;;26.80;14.18;;;;;;;14.94;46.28;102031.88;5027761;28;20033;-50
2022/11/18 00:45:59;;;;;;;27.00;13.02;;;;;;;14.84;46.68;102020.66;5031576;28;20048;-50
2022/11/18 00:48:25;;;;;;;26.45;14.43;;;;;;;14.87;45.87;102031.03;5028945;28;20028;-52
2022/11/18 00:50:55;;;;;;;25.63;13.40;;;;;;;14.73;45.91;102022.09;5029781;28;20397;-53
2022/11/18 00:53:24;;;;;;;25.50;13.82;;;;;;;14.52;46.20;102023.09;5031400;28;20031;-53
2022/11/18 00:55:51;;;;;;;26.33;13.68;;;;;;;14.36;46.98;102019.91;5018899;28;20036;-52
2022/11/18 00:58:17;;;;;;;26.98;13.13;;;;;;;14.27;47.48;102022.78;5024733;28;20075;-50
2022/11/18 01:00:47;;;;;;;24.02;13.32;;;;;;;14.22;47.92;102027.09;5032273;28;20088;-51
2022/11/18 01:03:13;;;;;;;24.50;13.27;;;;;;;14.24;48.08;102027.72;5016488;28;20029;-51
2022/11/18 01:05:40;;;;;;;20.67;13.13;;;;;;;14.11;48.46;102027.69;5015506;28;20657;-51
2022/11/18 01:08:08;;;;;;;20.38;12.13;;;;;;;14.00;48.39;102029.09;5015803;28;20091;-51
2022/11/18 01:10:36;;;;;;;23.48;11.82;;;;;;;13.85;48.26;102033.75;5015548;28;20045;-52
2022/11/18 01:13:22;;;;;;;25.80;13.55;;;;;;;13.85;48.37;102034.59;5016248;28;20092;-50
2022/11/18 01:15:52;;;;;;;17.77;10.23;;;;;;;13.80;48.23;102026.28;5034790;28;20022;-52
2022/11/18 01:18:22;;;;;;;20.40;10.15;;;;;;;13.58;48.38;102028.19;5033392;28;20079;-51
2022/11/18 01:20:49;;;;;;;12.93;8.18;;;;;;;13.57;48.25;102033.78;5035315;28;20489;-49
2022/11/18 01:23:16;;;;;;;15.55;7.85;;;;;;;13.41;48.16;102029.53;5035198;28;20473;-48
2022/11/18 01:25:45;;;;;;;13.65;7.13;;;;;;;13.32;48.46;102023.47;5014900;28;20397;-50
2022/11/18 01:28:12;;;;;;;8.77;6.35;;;;;;;13.36;48.43;102030.13;5033606;28;20143;-51
2022/11/18 01:30:40;;;;;;;14.07;7.28;;;;;;;13.41;47.98;102026.84;5034686;28;20164;-51
2022/11/18 01:33:07;;;;;;;10.25;6.10;;;;;;;13.27;47.82;102022.38;5029400;28;20025;-52
2022/11/18 01:35:43;;;;;;;11.93;6.82;;;;;;;13.22;47.67;102020.31;5025408;28;20030;-50
2022/11/18 01:38:13;;;;;;;9.75;6.13;;;;;;;13.12;47.83;102014.38;5034653;28;20025;-51
2022/11/18 01:40:40;;;;;;;9.93;5.90;;;;;;;13.11;47.67;102021.63;5031118;28;20575;-51
2022/11/18 01:43:16;;;;;;;9.80;6.20;;;;;;;13.00;47.82;102021.31;5014553;28;20038;-52
2022/11/18 01:45:44;;;;;;;12.38;7.18;;;;;;;12.90;48.15;102025.16;5014881;28;20037;-52
2022/11/18 01:48:32;;;;;;;10.07;6.70;;;;;;;12.83;48.34;102015.38;5014706;28;20429;-50
2022/11/18 01:51:10;;;;;;;10.30;6.53;;;;;;;12.71;48.23;102019.56;5014393;28;20058;-50
2022/11/18 01:53:50;;;;;;;9.15;6.38;;;;;;;12.63;48.42;102015.16;5030992;28;20029;-50
2022/11/18 01:56:32;;;;;;;10.10;6.50;;;;;;;12.49;48.82;102016.03;5003830;28;20369;-51
2022/11/18 01:59:14;;;;;;;6.82;5.57;;;;;;;12.54;48.87;102024.34;5034201;28;20437;-50
2022/11/18 02:01:40;;;;;;;8.70;5.70;;;;;;;12.36;48.78;102028.28;5014523;28;20030;-47
2022/11/18 02:04:09;;;;;;;8.15;5.75;;;;;;;12.24;49.08;102026.28;5014699;28;20022;-51
2022/11/18 02:06:36;;;;;;;7.93;5.47;;;;;;;12.10;49.13;102034.19;5018045;28;20080;-47
2022/11/18 02:09:02;;;;;;;9.88;5.78;;;;;;;11.91;49.70;102036.59;5032116;28;20029;-51
2022/11/18 02:14:15;;;;;;;9.20;5.88;;;;;;;11.85;49.55;102035.47;5033988;28;20043;-50
2022/11/18 02:17:23;;;;;;;7.05;5.25;;;;;;;11.29;50.72;102040.38;5028847;28;20099;-51
2022/11/18 02:19:57;;;;;;;7.90;5.68;;;;;;;10.67;52.02;102040.53;4988435;28;20499;-51
2022/11/18 02:22:32;;;;;;;8.27;5.80;;;;;;;10.90;51.80;102041.38;4988126;28;20043;-50
2022/11/18 02:25:17;;;;;;;8.80;6.22;;;;;;;11.11;50.91;102040.72;4972930;28;20276;-51
2022/11/18 02:28:07;;;;;;;8.75;6.35;;;;;;;11.12;51.49;102037.00;4990883;28;20115;-47
2022/11/18 02:30:49;;;;;;;9.65;6.63;;;;;;;11.02;51.69;102028.38;4991777;28;20038;-48
2022/11/18 02:33:46;;;;;;;9.77;6.43;;;;;;;10.67;52.85;102032.50;4992086;28;20037;-48
2022/11/18 02:36:27;;;;;;;12.10;6.85;;;;;;;10.79;52.54;102034.59;4970052;28;20034;-47
2022/11/18 02:39:02;;;;;;;9.07;6.43;;;;;;;10.75;52.65;102038.63;4992182;28;20098;-46
2022/11/18 02:41:33;;;;;;;8.68;6.60;;;;;;;10.13;54.30;102035.09;4992088;28;20129;-48
2022/11/18 02:44:11;;;;;;;13.80;7.72;;;;;;;10.18;54.09;102043.44;4987958;28;20364;-48
2022/11/18 02:46:39;;;;;;;12.23;7.35;;;;;;;10.43;53.34;102041.50;4990901;28;20078;-51
2022/11/18 02:49:31;;;;;;;9.85;6.65;;;;;;;10.50;53.27;102039.81;4991217;28;20042;-50
2022/11/18 02:51:58;;;;;;;9.65;7.47;;;;;;;10.18;53.81;102041.59;5013798;28;20049;-50
2022/11/18 02:54:27;;;;;;;10.48;6.72;;;;;;;10.58;52.87;102045.09;5016034;28;20033;-47
2022/11/18 02:56:54;;;;;;;11.82;6.57;;;;;;;10.36;52.65;102048.56;5033373;28;20104;-51
2022/11/18 02:59:21;;;;;;;9.25;6.28;;;;;;;10.32;52.65;102046.22;5033013;28;20502;-50
2022/11/18 03:01:47;;;;;;;9.30;5.65;;;;;;;10.36;52.81;102053.91;5027434;28;20028;-50
2022/11/18 03:04:15;;;;;;;9.70;6.32;;;;;;;10.41;52.28;102056.91;5017950;28;20104;-47
2022/11/18 03:06:53;;;;;;;10.73;6.15;;;;;;;10.43;52.29;102049.53;5033068;28;20482;-50
2022/11/18 03:09:37;;;;;;;11.60;6.60;;;;;;;10.26;52.92;102054.94;5032982;28;20033;-51
2022/11/18 03:12:50;;;;;;;9.15;5.82;;;;;;;10.24;53.09;102059.66;5026769;28;20021;-46
2022/11/18 03:15:27;;;;;;;9.73;5.97;;;;;;;10.41;53.13;102052.38;4986524;28;20038;-47
2022/11/18 03:17:59;;;;;;;9.32;6.35;;;;;;;10.22;53.18;102058.16;5032541;28;20061;-50
2022/11/18 03:20:57;;;;;;;8.20;5.90;;;;;;;10.17;53.21;102052.47;5019431;28;20025;-48
2022/11/18 03:23:32;;;;;;;10.63;5.85;;;;;;;10.14;53.69;102042.94;5012359;28;20092;-47
2022/11/18 03:26:03;;;;;;;10.40;5.50;;;;;;;10.05;53.58;102044.81;5012849;28;20054;-48
2022/11/18 03:28:42;;;;;;;10.32;5.97;;;;;;;10.07;53.37;102039.28;5013741;28;20021;-49
2022/11/18 03:31:21;;;;;;;9.65;6.43;;;;;;;9.94;54.08;102036.34;5027256;28;20037;-48
2022/11/18 03:34:01;;;;;;;7.88;5.55;;;;;;;9.81;54.48;102044.06;5032397;28;20037;-50
2022/11/18 03:36:32;;;;;;;8.65;5.63;;;;;;;9.60;55.15;102042.75;5032852;28;20037;-47
2022/11/18 03:39:01;;;;;;;8.77;5.50;;;;;;;9.56;55.32;102036.09;5019256;28;20518;-49
2022/11/18 03:41:31;;;;;;;13.13;7.22;;;;;;;9.40;55.99;102025.44;5012916;28;20474;-49
2022/11/18 03:44:05;;;;;;;12.15;6.35;;;;;;;9.45;55.92;102034.63;5012701;28;20072;-47
2022/11/18 03:46:38;;;;;;;10.23;6.05;;;;;;;9.41;56.15;102037.78;5014417;28;20048;-48
2022/11/18 03:49:09;;;;;;;9.50;5.82;;;;;;;9.39;56.34;102035.31;5012369;28;20026;-47
2022/11/18 03:51:43;;;;;;;8.30;5.88;;;;;;;9.60;55.71;102042.75;5016770;28;20120;-51
2022/11/18 03:54:18;;;;;;;7.82;5.57;;;;;;;9.59;55.50;102040.25;5012578;28;20030;-47
2022/11/18 03:56:57;;;;;;;7.93;5.60;;;;;;;9.64;55.62;102038.75;5012476;28;20042;-46
2022/11/18 03:59:35;;;;;;;10.13;6.30;;;;;;;9.37;56.01;102041.81;5012529;28;20254;-50
2022/11/18 04:02:10;;;;;;;11.93;6.40;;;;;;;9.49;55.44;102035.97;5012457;28;20018;-48
2022/11/18 04:04:37;;;;;;;10.68;6.38;;;;;;;9.51;55.42;102044.63;5012169;28;20118;-50
2022/11/18 04:07:13;;;;;;;10.00;6.85;;;;;;;9.21;56.51;102040.81;5021440;28;20355;-50
2022/11/18 04:09:50;;;;;;;12.40;7.00;;;;;;;9.02;57.37;102048.34;5031362;28;20049;-50
2022/11/18 04:12:19;;;;;;;11.38;6.00;;;;;;;9.18;56.49;102059.84;5031976;28;20026;-49
2022/11/18 04:14:48;;;;;;;10.60;5.57;;;;;;;9.23;56.18;102051.34;5025895;28;20040;-50
2022/11/18 04:17:18;;;;;;;7.95;4.85;;;;;;;9.20;56.57;102057.84;5013910;28;20032;-49
2022/11/18 04:19:45;;;;;;;9.05;5.43;;;;;;;9.32;56.40;102060.16;5018309;28;20029;-50
2022/11/18 04:22:11;;;;;;;8.73;5.45;;;;;;;9.25;56.24;102060.84;5025342;28;20029;-49
2022/11/18 04:24:38;;;;;;;8.75;5.10;;;;;;;9.26;56.29;102064.34;5021850;28;20044;-51
2022/11/18 04:27:05;;;;;;;7.00;5.30;;;;;;;9.25;56.30;102068.03;5029815;28;20108;-50
2022/11/18 04:29:32;;;;;;;9.60;6.07;;;;;;;9.20;56.32;102068.53;5029822;28;20037;-47
2022/11/18 04:32:00;;;;;;;8.57;5.90;;;;;;;9.15;56.50;102062.84;5016913;28;20029;-47
2022/11/18 04:34:27;;;;;;;9.70;6.25;;;;;;;9.15;56.64;102064.69;5011840;28;20034;-48
2022/11/18 04:36:53;;;;;;;10.57;6.38;;;;;;;9.06;57.09;102063.84;5016048;28;20116;-48
2022/11/18 04:39:19;;;;;;;9.48;5.60;;;;;;;9.05;56.80;102059.53;5029934;28;20028;-49
2022/11/18 04:41:55;;;;;;;8.88;5.50;;;;;;;9.02;56.96;102059.84;5029363;28;20038;-50
2022/11/18 04:44:29;;;;;;;7.78;5.38;;;;;;;8.93;56.97;102061.66;5030837;28;20587;-51
2022/11/18 04:46:56;;;;;;;8.18;5.38;;;;;;;8.94;57.42;102055.34;5019411;28;20506;-47
2022/11/18 04:49:24;;;;;;;9.70;5.63;;;;;;;8.96;57.42;102061.34;5011463;28;20101;-50
2022/11/18 04:51:51;;;;;;;8.13;5.53;;;;;;;8.93;57.25;102052.81;4994167;28;20037;-48
2022/11/18 04:54:18;;;;;;;6.68;4.88;;;;;;;8.89;57.62;102057.66;5011400;28;20036;-48
2022/11/18 04:56:46;;;;;;;6.85;4.72;;;;;;;8.90;57.51;102058.50;5031430;28;20489;-49
2022/11/18 04:59:14;;;;;;;8.07;4.55;;;;;;;8.80;57.66;102063.16;5026179;28;20029;-50
2022/11/18 05:01:40;;;;;;;6.28;4.32;;;;;;;8.73;57.90;102061.16;5029250;28;20017;-49
2022/11/18 05:04:07;;;;;;;9.98;4.50;;;;;;;8.71;58.01;102059.63;5030372;28;20100;-48
2022/11/18 05:06:34;;;;;;;6.97;5.15;;;;;;;8.72;58.03;102056.81;5014214;28;20057;-50
2022/11/18 05:09:01;;;;;;;8.43;5.15;;;;;;;8.50;58.76;102057.44;5018402;28;20033;-49
2022/11/18 05:14:12;;;;;;;10.13;5.95;;;;;;;8.46;58.92;102059.56;5024130;28;20093;-49
2022/11/18 05:16:39;;;;;;;8.43;5.90;;;;;;;8.58;59.05;102060.09;5012904;28;20040;-51
2022/11/18 05:19:06;;;;;;;7.53;6.13;;;;;;;8.41;59.30;102051.22;5030251;28;20056;-50
2022/11/18 05:21:32;;;;;;;7.30;5.18;;;;;;;8.38;59.25;102061.38;5021699;28;20084;-49
2022/11/18 05:23:59;;;;;;;8.13;5.97;;;;;;;8.32;59.62;102054.81;5023581;28;20041;-51
2022/11/18 05:26:26;;;;;;;8.07;6.03;;;;;;;8.30;59.65;102051.47;5016443;28;20386;-52
2022/11/18 05:28:52;;;;;;;8.75;5.38;;;;;;;8.23;59.77;102046.97;5030939;28;20083;-51
2022/11/18 05:31:18;;;;;;;11.55;5.40;;;;;;;8.23;59.46;102042.47;5028104;28;20038;-51
2022/11/18 05:33:45;;;;;;;11.35;5.90;;;;;;;8.06;60.00;102044.22;5030785;28;20021;-47
2022/11/18 05:36:14;;;;;;;6.25;4.80;;;;;;;7.93;60.11;102035.81;5031429;28;20083;-49
2022/11/18 05:38:41;;;;;;;9.15;4.90;;;;;;;7.49;61.70;102038.56;5030513;28;20115;-50
2022/11/18 05:41:08;;;;;;;7.50;5.35;;;;;;;7.52;61.65;102038.25;5031059;28;20036;-51
2022/11/18 05:43:35;;;;;;;9.77;6.63;;;;;;;7.63;61.40;102039.81;5030897;28;20077;-52
2022/11/18 05:46:02;;;;;;;10.00;6.65;;;;;;;7.66;61.02;102037.69;5031049;28;20498;-49
2022/11/18 05:48:29;;;;;;;11.10;8.02;;;;;;;7.61;61.40;102045.31;5034344;28;20119;-51
2022/11/18 05:50:55;;;;;;;9.68;6.63;;;;;;;7.29;62.54;102042.44;5033785;28;20126;-49
2022/11/18 05:53:24;;;;;;;7.57;5.85;;;;;;;7.64;61.31;102045.00;5018578;28;20548;-50
2022/11/18 05:56:14;;;;;;;8.48;5.65;;;;;;;7.58;61.49;102045.63;5014630;28;20622;-48
2022/11/18 05:58:40;;;;;;;5.65;4.57;;;;;;;7.67;61.39;102052.69;5014069;28;20026;-51
2022/11/18 06:01:07;;;;;;;7.18;4.78;;;;;;;7.78;60.96;102045.41;5014876;28;20062;-51
2022/11/18 06:03:39;;;;;;;7.25;5.00;;;;;;;7.86;60.91;102056.13;5033680;28;20033;-49
2022/11/18 06:06:07;;;;;;;7.85;5.95;;;;;;;7.87;61.08;102050.63;5033556;28;20037;-51
2022/11/18 06:08:45;;;;;;;8.65;6.32;;;;;;;7.74;61.68;102044.06;5032547;28;20029;-48
2022/11/18 06:11:15;;;;;;;10.27;6.55;;;;;;;7.97;62.15;102047.00;5020374;28;20034;-49
2022/11/18 06:14:04;;;;;;;8.82;6.28;;;;;;;7.72;62.46;102046.03;5030437;28;20022;-50
2022/11/18 06:16:33;;;;;;;10.80;6.50;;;;;;;7.66;62.69;102045.69;5019022;28;20048;-49
2022/11/18 06:19:01;;;;;;;9.73;5.93;;;;;;;7.66;62.34;102037.69;5033028;28;20041;-49
2022/11/18 06:21:28;;;;;;;11.85;6.78;;;;;;;7.64;62.56;102034.34;5032819;28;20017;-49
2022/11/18 06:23:55;;;;;;;9.30;6.63;;;;;;;7.57;62.91;102033.31;5032076;28;20045;-50
2022/11/18 06:26:21;;;;;;;7.57;5.38;;;;;;;7.54;63.18;102025.59;5033455;28;20061;-51
2022/11/18 06:28:48;;;;;;;11.35;6.28;;;;;;;7.52;62.83;102027.59;5032808;28;20038;-47
2022/11/18 06:31:15;;;;;;;7.22;5.15;;;;;;;7.37;63.23;102029.16;5032849;28;20037;-51
2022/11/18 06:33:42;;;;;;;6.60;4.60;;;;;;;7.23;63.73;102032.41;5033157;28;20025;-49
2022/11/18 06:36:09;;;;;;;7.28;4.45;;;;;;;7.24;63.50;102023.41;5033291;28;20944;-51
2022/11/18 06:38:35;;;;;;;5.45;4.20;;;;;;;7.28;63.34;102025.63;5031903;28;20581;-49
2022/11/18 06:41:01;;;;;;;7.00;4.32;;;;;;;7.36;63.17;102023.00;5022701;28;20086;-48
2022/11/18 06:43:42;;;;;;;8.30;4.85;;;;;;;7.58;62.90;102023.47;5032432;28;20064;-48
2022/11/18 06:48:57;;;;;;;8.98;6.22;;;;;;;7.35;64.66;102020.50;5032280;28;20048;-50
2022/11/18 06:51:23;;;;;;;9.98;7.25;;;;;;;7.33;64.59;102019.84;5033475;28;20116;-48
2022/11/18 06:53:50;;;;;;;8.75;6.97;;;;;;;7.12;65.37;102020.16;5032372;28;20095;-49
2022/11/18 06:56:18;;;;;;;7.90;6.97;;;;;;;7.28;65.31;102024.78;5031594;28;20079;-49
2022/11/18 06:58:45;;;;;;;7.75;6.32;;;;;;;7.21;65.17;102021.06;5031804;28;20029;-49
2022/11/18 07:01:16;;;;;;;11.38;6.53;;;;;;;7.09;65.44;102015.97;5032174;28;20033;-48
2022/11/18 07:03:44;;;;;;;10.40;6.65;;;;;;;7.21;65.22;102007.72;5031291;28;20060;-48
2022/11/18 07:06:12;;;;;;;11.43;7.25;;;;;;;7.29;65.08;102008.63;5033235;28;20060;-45
2022/11/18 07:08:39;;;;;;;13.50;7.43;;;;;;;7.34;65.40;102005.50;5031937;28;20030;-48
2022/11/18 07:11:07;;;;;;;11.13;7.47;;;;;;;7.09;65.76;102004.50;5033138;28;20034;-47
2022/11/18 07:13:34;;;;;;;9.35;6.93;;;;;;;7.07;66.43;102007.31;5032357;28;20111;-47
2022/11/18 07:16:05;;;;;;;13.32;6.80;;;;;;;6.96;66.57;102001.41;5030788;28;20060;-47
2022/11/18 07:18:36;;;;;;;10.50;7.38;;;;;;;6.82;66.87;101997.44;5031819;28;20071;-51
2022/11/18 07:21:08;;;;;;;9.05;6.80;;;;;;;6.83;66.94;101996.47;5028124;28;20064;-50
2022/11/18 07:23:35;;;;;;;9.85;6.90;;;;;;;6.73;67.91;101998.38;5032337;28;20497;-50
2022/11/18 07:26:01;;;;;;;9.10;7.47;;;;;;;6.77;67.94;101995.22;5032032;28;20486;-47
2022/11/18 07:28:28;;;;;;;10.18;6.65;;;;;;;6.84;67.38;102000.81;5030820;28;20034;-48
2022/11/18 07:31:21;;;;;;;9.85;7.13;;;;;;;7.01;66.99;102002.59;5030655;28;20029;-51
2022/11/18 07:33:48;;;;;;;8.95;7.45;;;;;;;7.07;67.64;101999.31;5028436;28;20121;-50
2022/11/18 07:36:20;;;;;;;11.23;7.65;;;;;;;6.70;69.17;102004.00;5031493;28;20022;-51
2022/11/18 07:38:47;;;;;;;9.18;7.35;;;;;;;6.53;70.55;102003.00;5031083;28;20029;-50
2022/11/18 07:41:23;;;;;;;8.43;6.65;;;;;;;6.54;70.40;101999.34;5031536;28;20040;-47
2022/11/18 07:43:51;;;;;;;8.30;6.15;;;;;;;6.75;69.77;101999.03;5031070;28;20026;-46
2022/11/18 07:46:21;;;;;;;9.55;8.10;;;;;;;6.77;69.08;101999.72;5031831;28;20103;-48
2022/11/18 07:48:50;;;;;;;10.02;7.45;;;;;;;6.67;69.30;101988.34;5030310;28;20037;-48
2022/11/18 07:51:19;;;;;;;9.63;7.00;;;;;;;6.65;69.02;101992.97;5031368;28;20117;-45
2022/11/18 07:53:46;;;;;;;12.38;6.85;;;;;;;6.60;69.05;101994.25;5031289;28;20041;-50
2022/11/18 07:56:14;;;;;;;10.43;6.97;;;;;;;6.75;68.57;101996.38;5031526;28;20022;-47
2022/11/18 07:58:41;;;;;;;9.80;7.45;;;;;;;6.59;69.01;101992.56;5031193;28;20029;-48
2022/11/18 08:01:08;;;;;;;10.50;7.25;;;;;;;6.73;68.29;101993.88;5030777;28;20025;-47
2022/11/18 08:03:34;;;;;;;9.32;6.93;;;;;;;6.53;68.76;101992.34;5031374;28;20485;-51
2022/11/18 08:06:02;;;;;;;10.82;7.65;;;;;;;6.51;68.58;101995.16;5030431;28;20033;-48
2022/11/18 08:08:28;;;;;;;7.85;6.47;;;;;;;6.59;68.25;101981.94;5031110;28;20033;-48
2022/11/18 08:10:59;;;;;;;8.25;5.93;;;;;;;6.48;68.57;101979.50;5031092;28;20120;-48
2022/11/18 08:13:27;;;;;;;8.23;5.15;;;;;;;6.58;68.01;101974.94;5031870;28;20025;-50
2022/11/18 08:15:54;;;;;;;7.75;4.78;;;;;;;6.44;68.35;101978.16;5030085;28;20022;-50
2022/11/18 08:18:20;;;;;;;8.13;5.00;;;;;;;6.43;68.00;101971.13;5031965;28;20033;-47
2022/11/18 08:20:47;;;;;;;8.50;4.85;;;;;;;6.38;68.05;101977.91;5029828;28;20022;-51
2022/11/18 08:23:14;;;;;;;6.43;4.63;;;;;;;6.27;68.38;101969.19;5015664;28;20493;-46
2022/11/18 08:25:42;;;;;;;5.57;4.47;;;;;;;6.18;68.49;101967.41;5030761;28;20041;-47
2022/11/18 08:28:09;;;;;;;8.20;4.80;;;;;;;6.19;68.20;101958.44;5030843;28;20079;-47
2022/11/18 08:30:35;;;;;;;6.47;5.28;;;;;;;6.22;68.27;101957.28;5031141;28;20036;-46
2022/11/18 08:33:02;;;;;;;5.65;4.22;;;;;;;6.12;68.44;101956.53;5030622;28;20466;-52
2022/11/18 08:35:29;;;;;;;9.07;4.82;;;;;;;6.14;68.49;101965.19;5030095;28;20386;-47
2022/11/18 08:37:55;;;;;;;7.68;5.40;;;;;;;6.29;68.35;101969.84;5029675;28;20030;-48
2022/11/18 08:40:22;;;;;;;7.82;5.78;;;;;;;6.11;69.09;101960.16;5030337;28;20160;-49
2022/11/18 08:42:48;;;;;;;12.15;6.68;;;;;;;5.98;69.71;101961.34;5031619;28;20048;-48
2022/11/18 08:45:14;;;;;;;7.15;5.65;;;;;;;5.91;70.20;101954.09;5031341;28;20487;-47
2022/11/18 08:47:40;;;;;;;8.50;5.57;;;;;;;5.95;69.94;101950.19;5030519;28;20041;-50
2022/11/18 08:50:08;;;;;;;7.30;5.25;;;;;;;6.00;69.99;101954.09;5030456;28;20086;-48
2022/11/18 08:52:35;;;;;;;8.63;4.90;;;;;;;5.93;70.26;101942.34;5031511;28;20056;-52
2022/11/18 08:55:03;;;;;;;25.13;5.55;;;;;;;5.89;70.73;101925.03;5029734;28;20034;-48
2022/11/18 08:57:29;;;;;;;6.30;4.60;;;;;;;5.91;70.72;101925.75;5030700;28;20112;-50
2022/11/18 08:59:55;;;;;;;8.77;4.75;;;;;;;5.88;70.97;101926.00;5024250;28;20371;-50
2022/11/18 09:02:23;;;;;;;5.63;4.07;;;;;;;5.95;71.23;101927.13;5022931;28;20155;-49
2022/11/18 09:04:52;;;;;;;7.72;4.63;;;;;;;5.99;71.02;101925.81;5030641;28;20030;-50
2022/11/18 09:07:20;;;;;;;6.40;4.35;;;;;;;6.08;70.90;101929.41;5030480;28;20672;-51
2022/11/18 09:09:46;;;;;;;5.22;4.05;;;;;;;6.01;71.47;101929.19;5030114;28;20026;-50
2022/11/18 09:12:14;;;;;;;5.22;3.50;;;;;;;5.95;71.89;101929.78;5030324;28;20061;-51
2022/11/18 09:14:46;;;;;;;11.30;3.80;;;;;;;6.06;71.85;101924.25;5030360;28;20029;-52
2022/11/18 09:17:14;;;;;;;4.68;3.58;;;;;;;6.06;71.65;101924.25;5029666;28;20025;-48
2022/11/18 09:19:40;;;;;;;4.90;3.72;;;;;;;6.08;71.23;101924.94;5029701;28;20111;-48
2022/11/18 09:22:07;;;;;;;4.97;3.78;;;;;;;5.95;71.24;101924.47;5014551;28;20494;-49
2022/11/18 09:24:34;;;;;;;5.43;3.78;;;;;;;6.03;70.77;101921.03;5026308;28;20167;-50
2022/11/18 09:27:05;;;;;;;4.57;3.83;;;;;;;5.87;70.90;101915.50;5033088;28;20112;-51
2022/11/18 09:29:32;;;;;;;9.82;4.03;;;;;;;5.89;70.71;101918.88;5030507;28;20032;-51
2022/11/18 09:32:00;;;;;;;7.95;4.10;;;;;;;5.89;70.58;101927.69;5033938;28;20116;-50
2022/11/18 09:34:28;;;;;;;6.40;4.43;;;;;;;5.87;70.72;101923.50;5034322;28;20096;-50
2022/11/18 09:36:55;;;;;;;7.75;5.07;;;;;;;5.96;70.39;101923.47;5034022;28;20036;-49
2022/11/18 09:39:23;;;;;;;8.60;5.88;;;;;;;5.99;70.68;101928.47;5026596;28;20030;-51
2022/11/18 09:42:14;;;;;;;10.80;6.20;;;;;;;6.00;71.14;101924.84;5036175;28;20024;-51
2022/11/18 09:44:40;;;;;;;8.07;6.00;;;;;;;5.93;71.54;101931.72;5030839;28;20022;-51
2022/11/18 09:47:27;;;;;;;8.95;6.65;;;;;;;5.96;71.92;101930.59;5025588;28;20049;-49
2022/11/18 09:49:59;;;;;;;8.45;6.38;;;;;;;6.00;71.92;101916.03;5022864;28;20029;-49
2022/11/18 09:52:43;;;;;;;10.40;6.25;;;;;;;6.06;71.61;101918.94;5034632;28;20103;-45
2022/11/18 09:55:18;;;;;;;11.38;6.15;;;;;;;5.75;72.37;101912.22;5033682;28;20025;-49
2022/11/18 09:57:48;;;;;;;9.05;6.40;;;;;;;5.73;72.29;101898.28;5016271;28;20091;-49
2022/11/18 10:00:24;;;;;;;8.93;5.88;;;;;;;5.61;72.29;101892.31;5032313;28;20025;-47
2022/11/18 10:03:06;;;;;;;8.60;6.20;;;;;;;5.54;72.07;101891.22;5032919;28;20036;-47
2022/11/18 10:05:52;;;;;;;6.95;5.45;;;;;;;5.52;71.92;101872.78;5032567;28;20434;-51
2022/11/18 10:08:46;;;;;;;6.88;5.22;;;;;;;5.57;71.51;101880.31;5014540;28;20071;-50
2022/11/18 10:11:23;;;;;;;7.70;5.75;;;;;;;5.41;71.69;101888.91;5016934;28;20087;-51
2022/11/18 10:14:10;;;;;;;9.57;6.32;;;;;;;5.44;71.91;101895.72;5033065;28;20476;-49
2022/11/18 10:17:05;;;;;;;7.25;5.78;;;;;;;5.34;72.33;101895.81;5033248;28;20501;-49
2022/11/18 10:19:50;;;;;;;7.68;5.45;;;;;;;5.29;72.53;101879.47;5032875;28;20061;-47
2022/11/18 10:22:53;;;;;;;6.30;4.93;;;;;;;5.35;73.18;101878.03;5034242;28;20041;-51
2022/11/18 10:25:20;;;;;;;7.53;5.45;;;;;;;5.29;72.95;101882.13;4945565;28;20051;-50
2022/11/18 10:27:48;;;;;;;7.07;5.07;;;;;;;5.23;72.91;101888.84;5034035;28;20021;-48
2022/11/18 10:30:20;;;;;;;8.27;5.95;;;;;;;5.32;72.75;101889.78;5032453;28;20029;-48
2022/11/18 10:33:01;;;;;;;9.27;5.90;;;;;;;5.22;73.03;101881.03;5033130;28;20029;-48
2022/11/18 10:35:36;;;;;;;6.20;5.57;;;;;;;5.17;73.16;101872.69;5018032;28;20029;-49
2022/11/18 10:38:14;;;;;;;6.78;5.43;;;;;;;5.16;73.63;101870.97;5029063;28;20041;-50
2022/11/18 10:40:51;;;;;;;8.30;5.95;;;;;;;5.22;73.43;101868.59;5032104;28;20045;-49
2022/11/18 10:43:45;;;;;;;8.07;5.80;;;;;;;5.24;73.17;101879.91;5032816;28;20036;-50
2022/11/18 10:46:27;;;;;;;7.65;6.30;;;;;;;5.56;73.57;101876.81;5026154;28;20050;-49
2022/11/18 10:49:15;;;;;;;6.13;5.18;;;;;;;5.44;73.70;101874.50;5020730;28;20117;-46
2022/11/18 10:51:47;;;;;;;7.25;5.65;;;;;;;5.35;73.93;101878.88;5032389;28;20509;-47
2022/11/18 10:54:13;;;;;;;9.05;5.30;;;;;;;5.26;74.12;101869.13;5032099;28;20122;-50
2022/11/18 10:57:15;;;;;;;7.13;5.53;;;;;;;5.24;74.11;101884.38;5033060;28;20144;-48
2022/11/18 10:59:51;;;;;;;8.45;5.43;;;;;;;5.21;73.74;101872.22;5013913;28;20554;-49
2022/11/18 11:02:24;;;;;;;7.88;5.97;;;;;;;5.19;73.70;101873.34;5025208;28;20032;-48
2022/11/18 11:04:52;;;;;;;8.05;5.65;;;;;;;5.08;73.55;101861.09;5023215;28;20040;-48
2022/11/18 11:07:33;;;;;;;7.47;6.03;;;;;;;5.03;73.68;101858.88;5033227;28;20435;-51
2022/11/18 11:10:12;;;;;;;8.57;5.28;;;;;;;5.11;73.73;101857.31;5031143;28;20152;-48
2022/11/18 11:12:47;;;;;;;8.43;6.18;;;;;;;5.10;73.47;101864.44;5033094;28;20366;-48
2022/11/18 11:15:35;;;;;;;9.57;6.63;;;;;;;5.26;74.03;101861.16;5032108;28;20025;-46
2022/11/18 11:20:55;;;;;;;7.28;5.78;;;;;;;4.98;74.84;101861.13;5032611;28;20294;-47
2022/11/18 11:23:25;;;;;;;7.50;5.78;;;;;;;5.01;75.28;101855.53;5032099;28;20021;-50
2022/11/18 11:26:08;;;;;;;10.32;5.60;;;;;;;5.01;74.48;101862.66;5031522;28;20074;-49
2022/11/18 11:28:58;;;;;;;10.85;5.78;;;;;;;5.00;74.24;101863.66;5031842;28;20037;-50
2022/11/18 11:31:33;;;;;;;7.18;5.68;;;;;;;4.95;74.22;101865.91;5030844;28;20500;-47
2022/11/18 11:34:19;;;;;;;7.78;5.45;;;;;;;4.91;74.06;101865.34;5031956;28;20031;-48
2022/11/18 11:37:11;;;;;;;9.23;6.00;;;;;;;4.92;73.66;101861.69;5031061;28;20037;-50
2022/11/18 11:39:55;;;;;;;6.78;5.05;;;;;;;4.86;73.79;101861.44;5031425;28;20029;-50
2022/11/18 11:42:46;;;;;;;6.63;5.15;;;;;;;4.86;73.98;101862.28;5030871;28;20029;-48
2022/11/18 11:45:34;;;;;;;9.73;5.63;;;;;;;4.87;73.83;101858.66;5030962;28;20445;-46
2022/11/18 11:48:17;;;;;;;8.32;5.80;;;;;;;4.93;73.55;101846.63;5011312;28;20108;-50
2022/11/18 11:50:54;;;;;;;6.93;5.47;;;;;;;4.84;73.71;101851.00;5030708;28;20048;-50
2022/11/18 11:54:04;;;;;;;7.50;5.82;;;;;;;4.78;74.04;101851.56;5031693;28;20037;-47
2022/11/18 11:56:54;;;;;;;12.02;6.00;;;;;;;4.84;74.23;101845.69;4939167;29;20554;-50
2022/11/18 11:59:39;;;;;;;6.72;5.13;;;;;;;4.82;74.04;101844.97;5027172;28;20079;-47
2022/11/18 12:02:28;;;;;;;7.88;5.18;;;;;;;4.77;74.11;101847.22;5018179;28;20096;-48
2022/11/18 12:05:00;;;;;;;5.55;4.70;;;;;;;4.76;74.54;101851.69;5016955;28;20030;-47